sensor_id;sensor_type;location;lat;lon;timestamp;P1;durP1;ratioP1;P2;durP2;ratioP2
20802;SDS011;10562;-33.856;151.182;2023-02-28T00:02:05;6.60;;;1.40;;
20802;SDS011;10562;-33.856;151.182;2023-02-28T00:04:38;5.78;;;1.52;;
20802;SDS011;10562;-33.856;151.182;2023-02-28T00:07:09;5.13;;;1.30;;
20802;SDS011;10562;-33.856;151.182;2023-02-28T00:09:40;8.05;;;1.50;;
20802;SDS011;10562;-33.856;151.182;2023-02-28T00:12:10;4.10;;;1.35;;
20802;SDS011;10562;-33.856;151.182;2023-02-28T00:14:41;12.52;;;1.55;;
20802;SDS011;10562;-33.856;151.182;2023-02-28T00:17:12;9.80;;;1.40;;
20802;SDS011;10562;-33.856;151.182;2023-02-28T00:19:45;5.55;;;1.40;;
20802;SDS011;10562;-33.856;151.182;2023-02-28T00:22:16;6.50;;;1.48;;
20802;SDS011;10562;-33.856;151.182;2023-02-28T00:24:48;5.50;;;1.58;;
20802;SDS011;10562;-33.856;151.182;2023-02-28T00:27:19;8.25;;;1.60;;
20802;SDS011;10562;-33.856;151.182;2023-02-28T00:29:49;7.15;;;1.40;;
20802;SDS011;10562;-33.856;151.182;2023-02-28T00:32:20;9.68;;;1.60;;
20802;SDS011;10562;-33.856;151.182;2023-02-28T00:34:53;6.30;;;1.45;;
20802;SDS011;10562;-33.856;151.182;2023-02-28T00:37:24;4.93;;;1.30;;
20802;SDS011;10562;-33.856;151.182;2023-02-28T00:39:55;3.60;;;1.27;;
20802;SDS011;10562;-33.856;151.182;2023-02-28T00:42:25;5.95;;;1.20;;
20802;SDS011;10562;-33.856;151.182;2023-02-28T00:44:56;5.13;;;1.30;;
20802;SDS011;10562;-33.856;151.182;2023-02-28T00:47:27;5.18;;;1.23;;
20802;SDS011;10562;-33.856;151.182;2023-02-28T00:50:00;8.68;;;1.38;;
20802;SDS011;10562;-33.856;151.182;2023-02-28T00:52:31;7.43;;;1.40;;
20802;SDS011;10562;-33.856;151.182;2023-02-28T00:55:02;5.85;;;1.30;;
20802;SDS011;10562;-33.856;151.182;2023-02-28T00:57:33;6.85;;;1.20;;
20802;SDS011;10562;-33.856;151.182;2023-02-28T01:00:04;4.72;;;1.20;;
20802;SDS011;10562;-33.856;151.182;2023-02-28T01:02:35;4.30;;;1.10;;
20802;SDS011;10562;-33.856;151.182;2023-02-28T01:05:08;6.40;;;1.20;;
20802;SDS011;10562;-33.856;151.182;2023-02-28T01:07:39;6.90;;;1.05;;
20802;SDS011;10562;-33.856;151.182;2023-02-28T01:10:10;7.68;;;1.13;;
20802;SDS011;10562;-33.856;151.182;2023-02-28T01:12:41;5.05;;;1.15;;
20802;SDS011;10562;-33.856;151.182;2023-02-28T01:15:12;4.40;;;1.08;;
20802;SDS011;10562;-33.856;151.182;2023-02-28T01:17:43;4.95;;;1.20;;
20802;SDS011;10562;-33.856;151.182;2023-02-28T01:20:15;7.80;;;1.27;;
20802;SDS011;10562;-33.856;151.182;2023-02-28T01:22:46;7.30;;;1.25;;
20802;SDS011;10562;-33.856;151.182;2023-02-28T01:25:17;5.45;;;1.48;;
20802;SDS011;10562;-33.856;151.182;2023-02-28T01:27:48;8.43;;;1.55;;
20802;SDS011;10562;-33.856;151.182;2023-02-28T01:30:19;6.57;;;1.30;;
20802;SDS011;10562;-33.856;151.182;2023-02-28T01:32:49;8.15;;;1.30;;
20802;SDS011;10562;-33.856;151.182;2023-02-28T01:35:23;5.57;;;1.30;;
20802;SDS011;10562;-33.856;151.182;2023-02-28T01:37:54;4.50;;;1.20;;
20802;SDS011;10562;-33.856;151.182;2023-02-28T01:40:25;6.63;;;1.20;;
20802;SDS011;10562;-33.856;151.182;2023-02-28T01:42:55;7.28;;;1.45;;
20802;SDS011;10562;-33.856;151.182;2023-02-28T01:45:26;11.15;;;1.60;;
20802;SDS011;10562;-33.856;151.182;2023-02-28T01:48:00;5.10;;;1.00;;
20802;SDS011;10562;-33.856;151.182;2023-02-28T01:50:36;9.25;;;1.45;;
20802;SDS011;10562;-33.856;151.182;2023-02-28T01:53:12;4.68;;;1.00;;
20802;SDS011;10562;-33.856;151.182;2023-02-28T01:55:46;6.00;;;1.05;;
20802;SDS011;10562;-33.856;151.182;2023-02-28T01:58:20;6.35;;;1.20;;
20802;SDS011;10562;-33.856;151.182;2023-02-28T02:00:51;6.82;;;1.60;;
20802;SDS011;10562;-33.856;151.182;2023-02-28T02:03:22;5.22;;;1.60;;
20802;SDS011;10562;-33.856;151.182;2023-02-28T02:05:54;7.03;;;2.22;;
20802;SDS011;10562;-33.856;151.182;2023-02-28T02:08:26;7.90;;;1.50;;
20802;SDS011;10562;-33.856;151.182;2023-02-28T02:10:59;6.57;;;1.60;;
20802;SDS011;10562;-33.856;151.182;2023-02-28T02:13:39;6.07;;;1.30;;
20802;SDS011;10562;-33.856;151.182;2023-02-28T02:16:26;6.00;;;1.58;;
20802;SDS011;10562;-33.856;151.182;2023-02-28T02:19:08;5.20;;;1.38;;
20802;SDS011;10562;-33.856;151.182;2023-02-28T02:22:03;5.53;;;1.38;;
20802;SDS011;10562;-33.856;151.182;2023-02-28T02:25:07;4.38;;;1.20;;
20802;SDS011;10562;-33.856;151.182;2023-02-28T02:30:59;7.57;;;1.52;;
20802;SDS011;10562;-33.856;151.182;2023-02-28T02:34:12;5.68;;;1.30;;
20802;SDS011;10562;-33.856;151.182;2023-02-28T02:37:15;9.30;;;1.27;;
20802;SDS011;10562;-33.856;151.182;2023-02-28T02:40:02;4.03;;;0.93;;
20802;SDS011;10562;-33.856;151.182;2023-02-28T02:42:39;7.35;;;1.33;;
20802;SDS011;10562;-33.856;151.182;2023-02-28T02:45:15;5.22;;;1.27;;
20802;SDS011;10562;-33.856;151.182;2023-02-28T02:47:51;5.55;;;1.20;;
20802;SDS011;10562;-33.856;151.182;2023-02-28T02:50:29;6.60;;;1.27;;
20802;SDS011;10562;-33.856;151.182;2023-02-28T02:53:04;5.35;;;1.17;;
20802;SDS011;10562;-33.856;151.182;2023-02-28T02:55:38;5.35;;;1.25;;
20802;SDS011;10562;-33.856;151.182;2023-02-28T02:58:14;6.72;;;1.30;;
20802;SDS011;10562;-33.856;151.182;2023-02-28T03:00:47;6.50;;;1.30;;
20802;SDS011;10562;-33.856;151.182;2023-02-28T03:03:21;6.63;;;1.30;;
20802;SDS011;10562;-33.856;151.182;2023-02-28T03:05:59;5.70;;;1.17;;
20802;SDS011;10562;-33.856;151.182;2023-02-28T03:08:34;5.38;;;1.27;;
20802;SDS011;10562;-33.856;151.182;2023-02-28T03:11:06;7.07;;;1.27;;
20802;SDS011;10562;-33.856;151.182;2023-02-28T03:13:59;5.68;;;1.10;;
20802;SDS011;10562;-33.856;151.182;2023-02-28T03:16:51;6.45;;;1.20;;
20802;SDS011;10562;-33.856;151.182;2023-02-28T03:19:47;5.53;;;1.20;;
20802;SDS011;10562;-33.856;151.182;2023-02-28T03:22:31;6.05;;;1.25;;
20802;SDS011;10562;-33.856;151.182;2023-02-28T03:25:17;7.13;;;1.10;;
20802;SDS011;10562;-33.856;151.182;2023-02-28T03:27:55;6.18;;;1.23;;
20802;SDS011;10562;-33.856;151.182;2023-02-28T03:30:35;5.10;;;1.08;;
20802;SDS011;10562;-33.856;151.182;2023-02-28T03:33:11;4.45;;;1.15;;
20802;SDS011;10562;-33.856;151.182;2023-02-28T03:35:45;8.30;;;1.50;;
20802;SDS011;10562;-33.856;151.182;2023-02-28T03:38:22;6.07;;;1.10;;
20802;SDS011;10562;-33.856;151.182;2023-02-28T03:41:00;5.88;;;1.20;;
20802;SDS011;10562;-33.856;151.182;2023-02-28T03:43:38;6.35;;;1.10;;
20802;SDS011;10562;-33.856;151.182;2023-02-28T03:46:12;7.05;;;1.23;;
20802;SDS011;10562;-33.856;151.182;2023-02-28T03:48:49;6.00;;;1.10;;
20802;SDS011;10562;-33.856;151.182;2023-02-28T03:51:24;7.47;;;1.20;;
20802;SDS011;10562;-33.856;151.182;2023-02-28T03:54:02;4.80;;;1.25;;
20802;SDS011;10562;-33.856;151.182;2023-02-28T03:56:38;3.15;;;0.90;;
20802;SDS011;10562;-33.856;151.182;2023-02-28T03:59:13;3.97;;;1.08;;
20802;SDS011;10562;-33.856;151.182;2023-02-28T04:01:47;3.45;;;0.98;;
20802;SDS011;10562;-33.856;151.182;2023-02-28T04:04:19;5.50;;;0.90;;
20802;SDS011;10562;-33.856;151.182;2023-02-28T04:06:50;8.45;;;1.10;;
20802;SDS011;10562;-33.856;151.182;2023-02-28T04:09:23;6.03;;;1.17;;
20802;SDS011;10562;-33.856;151.182;2023-02-28T04:11:54;5.88;;;1.02;;
20802;SDS011;10562;-33.856;151.182;2023-02-28T04:14:25;2.72;;;0.80;;
20802;SDS011;10562;-33.856;151.182;2023-02-28T04:16:56;6.15;;;0.90;;
20802;SDS011;10562;-33.856;151.182;2023-02-28T04:19:27;5.20;;;0.82;;
20802;SDS011;10562;-33.856;151.182;2023-02-28T04:21:57;4.43;;;1.00;;
20802;SDS011;10562;-33.856;151.182;2023-02-28T04:24:30;3.72;;;0.82;;
20802;SDS011;10562;-33.856;151.182;2023-02-28T04:27:01;7.15;;;0.90;;
20802;SDS011;10562;-33.856;151.182;2023-02-28T04:29:32;7.47;;;1.10;;
20802;SDS011;10562;-33.856;151.182;2023-02-28T04:32:03;3.92;;;0.80;;
20802;SDS011;10562;-33.856;151.182;2023-02-28T04:34:34;4.03;;;0.85;;
20802;SDS011;10562;-33.856;151.182;2023-02-28T04:37:05;4.57;;;0.80;;
20802;SDS011;10562;-33.856;151.182;2023-02-28T04:39:37;5.57;;;0.98;;
20802;SDS011;10562;-33.856;151.182;2023-02-28T04:42:09;5.38;;;1.13;;
20802;SDS011;10562;-33.856;151.182;2023-02-28T04:44:40;5.45;;;0.95;;
20802;SDS011;10562;-33.856;151.182;2023-02-28T04:47:11;3.35;;;0.80;;
20802;SDS011;10562;-33.856;151.182;2023-02-28T04:49:42;8.48;;;1.25;;
20802;SDS011;10562;-33.856;151.182;2023-02-28T04:52:12;4.93;;;1.00;;
20802;SDS011;10562;-33.856;151.182;2023-02-28T04:54:45;6.47;;;0.90;;
20802;SDS011;10562;-33.856;151.182;2023-02-28T04:57:16;7.68;;;1.10;;
20802;SDS011;10562;-33.856;151.182;2023-02-28T04:59:47;3.92;;;1.27;;
20802;SDS011;10562;-33.856;151.182;2023-02-28T05:02:17;5.10;;;1.00;;
20802;SDS011;10562;-33.856;151.182;2023-02-28T05:04:49;4.50;;;0.93;;
20802;SDS011;10562;-33.856;151.182;2023-02-28T05:07:20;7.18;;;0.90;;
20802;SDS011;10562;-33.856;151.182;2023-02-28T05:09:53;4.07;;;0.82;;
20802;SDS011;10562;-33.856;151.182;2023-02-28T05:12:24;4.15;;;1.23;;
20802;SDS011;10562;-33.856;151.182;2023-02-28T05:14:54;2.63;;;0.93;;
20802;SDS011;10562;-33.856;151.182;2023-02-28T05:17:25;4.95;;;0.93;;
20802;SDS011;10562;-33.856;151.182;2023-02-28T05:19:56;4.50;;;0.95;;
20802;SDS011;10562;-33.856;151.182;2023-02-28T05:22:27;4.90;;;1.27;;
20802;SDS011;10562;-33.856;151.182;2023-02-28T05:25:00;8.15;;;1.30;;
20802;SDS011;10562;-33.856;151.182;2023-02-28T05:27:31;3.92;;;0.90;;
20802;SDS011;10562;-33.856;151.182;2023-02-28T05:30:02;3.45;;;1.00;;
20802;SDS011;10562;-33.856;151.182;2023-02-28T05:32:33;3.55;;;1.00;;
20802;SDS011;10562;-33.856;151.182;2023-02-28T05:35:15;4.32;;;1.20;;
20802;SDS011;10562;-33.856;151.182;2023-02-28T05:37:46;5.68;;;1.10;;
20802;SDS011;10562;-33.856;151.182;2023-02-28T05:40:20;7.93;;;1.40;;
20802;SDS011;10562;-33.856;151.182;2023-02-28T05:42:50;4.45;;;1.00;;
20802;SDS011;10562;-33.856;151.182;2023-02-28T05:45:21;5.15;;;1.17;;
20802;SDS011;10562;-33.856;151.182;2023-02-28T05:47:53;4.50;;;1.20;;
20802;SDS011;10562;-33.856;151.182;2023-02-28T05:50:24;5.72;;;1.40;;
20802;SDS011;10562;-33.856;151.182;2023-02-28T05:52:55;6.70;;;1.50;;
20802;SDS011;10562;-33.856;151.182;2023-02-28T05:55:27;8.10;;;1.70;;
20802;SDS011;10562;-33.856;151.182;2023-02-28T05:57:58;7.30;;;1.30;;
20802;SDS011;10562;-33.856;151.182;2023-02-28T06:00:29;4.47;;;1.30;;
20802;SDS011;10562;-33.856;151.182;2023-02-28T06:03:00;4.72;;;1.38;;
20802;SDS011;10562;-33.856;151.182;2023-02-28T06:05:30;6.82;;;1.20;;
20802;SDS011;10562;-33.856;151.182;2023-02-28T06:08:01;6.55;;;1.42;;
20802;SDS011;10562;-33.856;151.182;2023-02-28T06:10:35;5.20;;;1.25;;
20802;SDS011;10562;-33.856;151.182;2023-02-28T06:13:05;6.22;;;1.35;;
20802;SDS011;10562;-33.856;151.182;2023-02-28T06:15:36;5.05;;;1.05;;
20802;SDS011;10562;-33.856;151.182;2023-02-28T06:18:07;4.88;;;1.10;;
20802;SDS011;10562;-33.856;151.182;2023-02-28T06:20:38;4.05;;;1.02;;
20802;SDS011;10562;-33.856;151.182;2023-02-28T06:23:09;4.82;;;1.10;;
20802;SDS011;10562;-33.856;151.182;2023-02-28T06:25:42;4.80;;;1.23;;
20802;SDS011;10562;-33.856;151.182;2023-02-28T06:28:15;5.28;;;1.10;;
20802;SDS011;10562;-33.856;151.182;2023-02-28T06:30:46;3.00;;;0.90;;
20802;SDS011;10562;-33.856;151.182;2023-02-28T06:33:17;4.72;;;1.25;;
20802;SDS011;10562;-33.856;151.182;2023-02-28T06:35:50;6.88;;;1.48;;
20802;SDS011;10562;-33.856;151.182;2023-02-28T06:38:21;9.13;;;1.50;;
20802;SDS011;10562;-33.856;151.182;2023-02-28T06:40:57;9.48;;;1.50;;
20802;SDS011;10562;-33.856;151.182;2023-02-28T06:43:29;5.35;;;1.15;;
20802;SDS011;10562;-33.856;151.182;2023-02-28T06:46:02;4.20;;;1.10;;
20802;SDS011;10562;-33.856;151.182;2023-02-28T06:48:34;3.42;;;1.10;;
20802;SDS011;10562;-33.856;151.182;2023-02-28T06:51:05;6.15;;;1.13;;
20802;SDS011;10562;-33.856;151.182;2023-02-28T06:53:37;5.47;;;1.20;;
20802;SDS011;10562;-33.856;151.182;2023-02-28T06:56:10;5.60;;;1.30;;
20802;SDS011;10562;-33.856;151.182;2023-02-28T06:58:45;6.18;;;1.27;;
20802;SDS011;10562;-33.856;151.182;2023-02-28T07:01:16;5.47;;;1.50;;
20802;SDS011;10562;-33.856;151.182;2023-02-28T07:03:49;4.38;;;1.27;;
20802;SDS011;10562;-33.856;151.182;2023-02-28T07:06:20;6.13;;;1.40;;
20802;SDS011;10562;-33.856;151.182;2023-02-28T07:08:55;6.43;;;1.33;;
20802;SDS011;10562;-33.856;151.182;2023-02-28T07:11:28;5.13;;;1.30;;
20802;SDS011;10562;-33.856;151.182;2023-02-28T07:13:59;10.30;;;1.77;;
20802;SDS011;10562;-33.856;151.182;2023-02-28T07:16:30;8.30;;;1.90;;
20802;SDS011;10562;-33.856;151.182;2023-02-28T07:19:00;6.75;;;1.80;;
20802;SDS011;10562;-33.856;151.182;2023-02-28T07:21:31;6.97;;;1.52;;
20802;SDS011;10562;-33.856;151.182;2023-02-28T07:24:02;9.93;;;1.70;;
20802;SDS011;10562;-33.856;151.182;2023-02-28T07:26:35;7.85;;;1.95;;
20802;SDS011;10562;-33.856;151.182;2023-02-28T07:29:06;9.45;;;2.00;;
20802;SDS011;10562;-33.856;151.182;2023-02-28T07:31:37;7.70;;;2.10;;
20802;SDS011;10562;-33.856;151.182;2023-02-28T07:34:07;12.50;;;2.00;;
20802;SDS011;10562;-33.856;151.182;2023-02-28T07:36:38;6.88;;;1.63;;
20802;SDS011;10562;-33.856;151.182;2023-02-28T07:39:09;6.70;;;1.70;;
20802;SDS011;10562;-33.856;151.182;2023-02-28T07:41:42;6.38;;;1.45;;
20802;SDS011;10562;-33.856;151.182;2023-02-28T07:44:12;10.95;;;1.90;;
20802;SDS011;10562;-33.856;151.182;2023-02-28T07:46:43;8.30;;;1.80;;
20802;SDS011;10562;-33.856;151.182;2023-02-28T07:49:14;8.77;;;1.60;;
20802;SDS011;10562;-33.856;151.182;2023-02-28T07:51:45;8.05;;;1.73;;
20802;SDS011;10562;-33.856;151.182;2023-02-28T07:54:16;9.50;;;1.80;;
20802;SDS011;10562;-33.856;151.182;2023-02-28T07:56:48;7.47;;;1.95;;
20802;SDS011;10562;-33.856;151.182;2023-02-28T07:59:19;11.57;;;2.30;;
20802;SDS011;10562;-33.856;151.182;2023-02-28T08:01:50;9.88;;;2.05;;
20802;SDS011;10562;-33.856;151.182;2023-02-28T08:04:21;4.68;;;1.77;;
20802;SDS011;10562;-33.856;151.182;2023-02-28T08:06:52;6.70;;;1.83;;
20802;SDS011;10562;-33.856;151.182;2023-02-28T08:09:22;5.53;;;2.00;;
20802;SDS011;10562;-33.856;151.182;2023-02-28T08:11:55;10.80;;;2.00;;
20802;SDS011;10562;-33.856;151.182;2023-02-28T08:14:26;8.10;;;2.08;;
20802;SDS011;10562;-33.856;151.182;2023-02-28T08:16:57;6.68;;;2.10;;
20802;SDS011;10562;-33.856;151.182;2023-02-28T08:19:28;7.22;;;2.13;;
20802;SDS011;10562;-33.856;151.182;2023-02-28T08:21:59;7.72;;;2.00;;
20802;SDS011;10562;-33.856;151.182;2023-02-28T08:24:29;10.38;;;2.45;;
20802;SDS011;10562;-33.856;151.182;2023-02-28T08:27:02;9.23;;;2.35;;
20802;SDS011;10562;-33.856;151.182;2023-02-28T08:29:33;8.85;;;2.20;;
20802;SDS011;10562;-33.856;151.182;2023-02-28T08:32:06;11.75;;;2.45;;
20802;SDS011;10562;-33.856;151.182;2023-02-28T08:34:36;10.35;;;2.60;;
20802;SDS011;10562;-33.856;151.182;2023-02-28T08:37:09;8.00;;;2.58;;
20802;SDS011;10562;-33.856;151.182;2023-02-28T08:39:40;7.60;;;2.88;;
20802;SDS011;10562;-33.856;151.182;2023-02-28T08:42:12;7.05;;;2.80;;
20802;SDS011;10562;-33.856;151.182;2023-02-28T08:44:43;7.95;;;3.05;;
20802;SDS011;10562;-33.856;151.182;2023-02-28T08:47:14;10.80;;;3.10;;
20802;SDS011;10562;-33.856;151.182;2023-02-28T08:49:45;9.10;;;3.22;;
20802;SDS011;10562;-33.856;151.182;2023-02-28T08:52:17;8.65;;;3.35;;
20802;SDS011;10562;-33.856;151.182;2023-02-28T08:54:47;14.55;;;3.53;;
20802;SDS011;10562;-33.856;151.182;2023-02-28T08:57:20;10.40;;;3.15;;
20802;SDS011;10562;-33.856;151.182;2023-02-28T08:59:52;11.13;;;3.17;;
20802;SDS011;10562;-33.856;151.182;2023-02-28T09:02:23;10.45;;;3.63;;
20802;SDS011;10562;-33.856;151.182;2023-02-28T09:04:54;10.32;;;3.40;;
20802;SDS011;10562;-33.856;151.182;2023-02-28T09:07:26;9.73;;;3.40;;
20802;SDS011;10562;-33.856;151.182;2023-02-28T09:09:57;12.63;;;4.07;;
20802;SDS011;10562;-33.856;151.182;2023-02-28T09:12:31;12.70;;;3.70;;
20802;SDS011;10562;-33.856;151.182;2023-02-28T09:15:03;8.27;;;3.55;;
20802;SDS011;10562;-33.856;151.182;2023-02-28T09:17:35;7.70;;;3.90;;
20802;SDS011;10562;-33.856;151.182;2023-02-28T09:20:06;9.25;;;3.90;;
20802;SDS011;10562;-33.856;151.182;2023-02-28T09:22:37;9.93;;;3.88;;
20802;SDS011;10562;-33.856;151.182;2023-02-28T09:25:08;12.30;;;4.47;;
20802;SDS011;10562;-33.856;151.182;2023-02-28T09:27:41;9.68;;;4.45;;
20802;SDS011;10562;-33.856;151.182;2023-02-28T09:30:12;11.88;;;4.30;;
20802;SDS011;10562;-33.856;151.182;2023-02-28T09:32:43;10.07;;;4.32;;
20802;SDS011;10562;-33.856;151.182;2023-02-28T09:35:18;15.57;;;4.43;;
20802;SDS011;10562;-33.856;151.182;2023-02-28T09:37:49;11.52;;;4.40;;
20802;SDS011;10562;-33.856;151.182;2023-02-28T09:40:20;12.20;;;4.65;;
20802;SDS011;10562;-33.856;151.182;2023-02-28T09:42:55;9.13;;;4.75;;
20802;SDS011;10562;-33.856;151.182;2023-02-28T09:45:28;10.43;;;4.25;;
20802;SDS011;10562;-33.856;151.182;2023-02-28T09:48:03;9.00;;;4.85;;
20802;SDS011;10562;-33.856;151.182;2023-02-28T09:50:40;9.25;;;4.93;;
20802;SDS011;10562;-33.856;151.182;2023-02-28T09:53:15;9.40;;;4.63;;
20802;SDS011;10562;-33.856;151.182;2023-02-28T09:55:53;8.30;;;4.10;;
20802;SDS011;10562;-33.856;151.182;2023-02-28T09:58:30;9.07;;;4.35;;
20802;SDS011;10562;-33.856;151.182;2023-02-28T10:01:06;8.73;;;3.72;;
20802;SDS011;10562;-33.856;151.182;2023-02-28T10:03:41;10.48;;;4.32;;
20802;SDS011;10562;-33.856;151.182;2023-02-28T10:06:17;13.65;;;4.38;;
20802;SDS011;10562;-33.856;151.182;2023-02-28T10:08:52;10.35;;;4.10;;
20802;SDS011;10562;-33.856;151.182;2023-02-28T10:11:29;9.60;;;4.10;;
20802;SDS011;10562;-33.856;151.182;2023-02-28T10:14:06;11.82;;;4.45;;
20802;SDS011;10562;-33.856;151.182;2023-02-28T10:16:43;9.00;;;4.45;;
20802;SDS011;10562;-33.856;151.182;2023-02-28T10:19:19;11.82;;;5.05;;
20802;SDS011;10562;-33.856;151.182;2023-02-28T10:21:55;11.90;;;4.88;;
20802;SDS011;10562;-33.856;151.182;2023-02-28T10:24:29;10.10;;;4.60;;
20802;SDS011;10562;-33.856;151.182;2023-02-28T10:27:06;10.45;;;4.60;;
20802;SDS011;10562;-33.856;151.182;2023-02-28T10:29:50;10.57;;;5.13;;
20802;SDS011;10562;-33.856;151.182;2023-02-28T10:32:23;14.55;;;5.32;;
20802;SDS011;10562;-33.856;151.182;2023-02-28T10:34:57;7.70;;;5.18;;
20802;SDS011;10562;-33.856;151.182;2023-02-28T10:37:28;10.35;;;5.57;;
20802;SDS011;10562;-33.856;151.182;2023-02-28T10:40:04;9.93;;;5.60;;
20802;SDS011;10562;-33.856;151.182;2023-02-28T10:42:56;7.88;;;5.00;;
20802;SDS011;10562;-33.856;151.182;2023-02-28T10:45:30;10.40;;;5.88;;
20802;SDS011;10562;-33.856;151.182;2023-02-28T10:48:03;9.90;;;5.45;;
20802;SDS011;10562;-33.856;151.182;2023-02-28T10:50:53;15.40;;;6.15;;
20802;SDS011;10562;-33.856;151.182;2023-02-28T10:53:28;10.65;;;5.72;;
20802;SDS011;10562;-33.856;151.182;2023-02-28T10:56:03;12.27;;;5.85;;
20802;SDS011;10562;-33.856;151.182;2023-02-28T10:58:44;17.00;;;5.97;;
20802;SDS011;10562;-33.856;151.182;2023-02-28T11:01:26;12.85;;;6.03;;
20802;SDS011;10562;-33.856;151.182;2023-02-28T11:04:16;13.98;;;6.72;;
20802;SDS011;10562;-33.856;151.182;2023-02-28T11:06:47;15.57;;;7.95;;
20802;SDS011;10562;-33.856;151.182;2023-02-28T11:09:26;15.52;;;7.63;;
20802;SDS011;10562;-33.856;151.182;2023-02-28T11:12:02;15.55;;;8.75;;
20802;SDS011;10562;-33.856;151.182;2023-02-28T11:14:36;14.40;;;7.65;;
20802;SDS011;10562;-33.856;151.182;2023-02-28T11:17:21;13.20;;;8.02;;
20802;SDS011;10562;-33.856;151.182;2023-02-28T11:19:53;14.90;;;11.02;;
20802;SDS011;10562;-33.856;151.182;2023-02-28T11:22:29;10.88;;;7.38;;
20802;SDS011;10562;-33.856;151.182;2023-02-28T11:25:07;13.43;;;8.05;;
20802;SDS011;10562;-33.856;151.182;2023-02-28T11:27:48;15.10;;;7.88;;
20802;SDS011;10562;-33.856;151.182;2023-02-28T11:30:27;17.77;;;8.75;;
20802;SDS011;10562;-33.856;151.182;2023-02-28T11:33:13;14.73;;;9.18;;
20802;SDS011;10562;-33.856;151.182;2023-02-28T11:35:55;18.73;;;14.20;;
20802;SDS011;10562;-33.856;151.182;2023-02-28T11:38:29;16.50;;;9.23;;
20802;SDS011;10562;-33.856;151.182;2023-02-28T11:41:06;15.27;;;10.43;;
20802;SDS011;10562;-33.856;151.182;2023-02-28T11:43:58;15.68;;;11.02;;
20802;SDS011;10562;-33.856;151.182;2023-02-28T11:46:41;16.58;;;11.57;;
20802;SDS011;10562;-33.856;151.182;2023-02-28T11:49:25;18.42;;;14.65;;
20802;SDS011;10562;-33.856;151.182;2023-02-28T11:52:08;20.35;;;12.88;;
20802;SDS011;10562;-33.856;151.182;2023-02-28T11:54:51;19.42;;;13.98;;
20802;SDS011;10562;-33.856;151.182;2023-02-28T11:57:34;19.05;;;13.18;;
20802;SDS011;10562;-33.856;151.182;2023-02-28T12:00:19;18.67;;;14.68;;
20802;SDS011;10562;-33.856;151.182;2023-02-28T12:03:03;17.98;;;15.65;;
20802;SDS011;10562;-33.856;151.182;2023-02-28T12:05:46;21.42;;;16.00;;
20802;SDS011;10562;-33.856;151.182;2023-02-28T12:08:41;19.90;;;16.73;;
20802;SDS011;10562;-33.856;151.182;2023-02-28T12:11:24;26.23;;;23.63;;
20802;SDS011;10562;-33.856;151.182;2023-02-28T12:14:11;16.73;;;14.82;;
20802;SDS011;10562;-33.856;151.182;2023-02-28T12:16:57;19.23;;;16.40;;
20802;SDS011;10562;-33.856;151.182;2023-02-28T12:19:35;25.90;;;18.20;;
20802;SDS011;10562;-33.856;151.182;2023-02-28T12:22:19;21.67;;;17.13;;
20802;SDS011;10562;-33.856;151.182;2023-02-28T12:28:09;18.42;;;16.52;;
20802;SDS011;10562;-33.856;151.182;2023-02-28T12:30:45;26.80;;;18.15;;
20802;SDS011;10562;-33.856;151.182;2023-02-28T12:33:24;20.08;;;17.52;;
20802;SDS011;10562;-33.856;151.182;2023-02-28T12:36:02;24.17;;;16.83;;
20802;SDS011;10562;-33.856;151.182;2023-02-28T12:38:39;18.92;;;16.92;;
20802;SDS011;10562;-33.856;151.182;2023-02-28T12:41:13;28.35;;;23.63;;
20802;SDS011;10562;-33.856;151.182;2023-02-28T12:43:48;23.67;;;17.35;;
20802;SDS011;10562;-33.856;151.182;2023-02-28T12:46:23;19.77;;;17.70;;
20802;SDS011;10562;-33.856;151.182;2023-02-28T12:48:58;21.50;;;19.20;;
20802;SDS011;10562;-33.856;151.182;2023-02-28T12:51:34;20.30;;;17.95;;
20802;SDS011;10562;-33.856;151.182;2023-02-28T12:54:10;20.48;;;18.48;;
20802;SDS011;10562;-33.856;151.182;2023-02-28T12:56:48;22.45;;;19.98;;
20802;SDS011;10562;-33.856;151.182;2023-02-28T12:59:27;21.65;;;17.00;;
20802;SDS011;10562;-33.856;151.182;2023-02-28T13:02:16;21.35;;;19.13;;
20802;SDS011;10562;-33.856;151.182;2023-02-28T13:05:08;22.33;;;18.65;;
20802;SDS011;10562;-33.856;151.182;2023-02-28T13:08:04;21.42;;;19.02;;
20802;SDS011;10562;-33.856;151.182;2023-02-28T13:10:53;32.05;;;29.00;;
20802;SDS011;10562;-33.856;151.182;2023-02-28T13:13:25;20.23;;;18.33;;
20802;SDS011;10562;-33.856;151.182;2023-02-28T13:16:01;22.15;;;19.88;;
20802;SDS011;10562;-33.856;151.182;2023-02-28T13:18:34;20.65;;;18.70;;
20802;SDS011;10562;-33.856;151.182;2023-02-28T13:21:06;24.05;;;19.33;;
20802;SDS011;10562;-33.856;151.182;2023-02-28T13:29:36;21.23;;;11.90;;
20802;SDS011;10562;-33.856;151.182;2023-02-28T13:32:27;18.33;;;11.07;;
20802;SDS011;10562;-33.856;151.182;2023-02-28T13:38:16;17.58;;;11.90;;
20802;SDS011;10562;-33.856;151.182;2023-02-28T13:44:10;14.13;;;10.98;;
20802;SDS011;10562;-33.856;151.182;2023-02-28T13:49:50;17.05;;;10.57;;
20802;SDS011;10562;-33.856;151.182;2023-02-28T13:52:22;20.95;;;11.90;;
20802;SDS011;10562;-33.856;151.182;2023-02-28T13:55:10;21.40;;;19.27;;
20802;SDS011;10562;-33.856;151.182;2023-02-28T13:58:05;17.50;;;11.20;;
20802;SDS011;10562;-33.856;151.182;2023-02-28T14:00:49;13.80;;;11.55;;
20802;SDS011;10562;-33.856;151.182;2023-02-28T14:03:46;15.50;;;10.88;;
20802;SDS011;10562;-33.856;151.182;2023-02-28T14:06:48;17.08;;;11.70;;
20802;SDS011;10562;-33.856;151.182;2023-02-28T14:09:23;15.32;;;12.20;;
20802;SDS011;10562;-33.856;151.182;2023-02-28T14:11:58;13.40;;;10.80;;
20802;SDS011;10562;-33.856;151.182;2023-02-28T14:18:00;17.23;;;11.35;;
20802;SDS011;10562;-33.856;151.182;2023-02-28T14:20:32;12.88;;;11.00;;
20802;SDS011;10562;-33.856;151.182;2023-02-28T14:23:06;18.60;;;11.48;;
20802;SDS011;10562;-33.856;151.182;2023-02-28T14:25:45;17.70;;;12.52;;
20802;SDS011;10562;-33.856;151.182;2023-02-28T14:28:25;24.40;;;13.18;;
20802;SDS011;10562;-33.856;151.182;2023-02-28T14:31:09;15.55;;;12.00;;
20802;SDS011;10562;-33.856;151.182;2023-02-28T14:33:44;15.52;;;11.55;;
20802;SDS011;10562;-33.856;151.182;2023-02-28T14:36:32;19.13;;;17.23;;
20802;SDS011;10562;-33.856;151.182;2023-02-28T14:39:07;13.98;;;12.48;;
20802;SDS011;10562;-33.856;151.182;2023-02-28T14:41:41;13.02;;;11.68;;
20802;SDS011;10562;-33.856;151.182;2023-02-28T14:44:14;15.43;;;11.52;;
20802;SDS011;10562;-33.856;151.182;2023-02-28T14:46:47;12.63;;;11.32;;
20802;SDS011;10562;-33.856;151.182;2023-02-28T14:52:21;14.30;;;11.13;;
20802;SDS011;10562;-33.856;151.182;2023-02-28T14:54:55;14.40;;;11.35;;
20802;SDS011;10562;-33.856;151.182;2023-02-28T14:57:28;15.65;;;11.80;;
20802;SDS011;10562;-33.856;151.182;2023-02-28T15:00:01;14.82;;;12.73;;
20802;SDS011;10562;-33.856;151.182;2023-02-28T15:02:36;14.43;;;11.85;;
20802;SDS011;10562;-33.856;151.182;2023-02-28T15:05:20;14.55;;;11.85;;
20802;SDS011;10562;-33.856;151.182;2023-02-28T15:08:09;14.57;;;12.02;;
20802;SDS011;10562;-33.856;151.182;2023-02-28T15:10:44;15.77;;;11.98;;
20802;SDS011;10562;-33.856;151.182;2023-02-28T15:13:19;14.77;;;11.95;;
20802;SDS011;10562;-33.856;151.182;2023-02-28T15:15:51;12.70;;;10.77;;